VIR76 KMCO-EGCC
Flight info
| Callsign | VIR76 |
|---|---|
| Flight time | N/A |
| Altitude | 35000 |
| Route | MZULO3 ETECK M202 UKOKA/M083F350 M202 JEBBY/N0486F370 DCT PORTI/M083F380 NATU XETBO/N0465F390 DCT BOFUM Q37 MALUD |
| Aircraft | A346/H-SDE2E3FGHIJ3J4J5M1P2RWXYZ/LB1D1 |
Departure
| Time | 2026-04-23 21:09 |
|---|---|
| Airport | Orlando International Airport (KMCO) |
Arrival
| Time | N/A |
|---|---|
| Airport | Manchester Airport (EGCC) |
| Time | Latitude | Longitude | Altitude | Speed | Heading |
|---|---|---|---|---|---|
| 2026-04-23 20:41 | 28.42532 | -81.29987 | 114 ft | 0 kts | 327° |
| 2026-04-23 20:57 | 28.42522 | -81.29980 | 114 ft | 2 kts | 336° |
| 2026-04-23 20:57 | 28.42507 | -81.29975 | 114 ft | 2 kts | 353° |
| 2026-04-23 20:58 | 28.42492 | -81.29974 | 114 ft | 2 kts | 5° |
| 2026-04-23 20:58 | 28.42477 | -81.29977 | 114 ft | 2 kts | 18° |
| 2026-04-23 20:58 | 28.42463 | -81.29984 | 114 ft | 2 kts | 31° |
| 2026-04-23 20:58 | 28.42452 | -81.29993 | 114 ft | 2 kts | 43° |
| 2026-04-23 20:59 | 28.42442 | -81.30006 | 114 ft | 2 kts | 56° |
| 2026-04-23 20:59 | 28.42435 | -81.30020 | 114 ft | 2 kts | 68° |
| 2026-04-23 20:59 | 28.42430 | -81.30036 | 114 ft | 2 kts | 81° |
| 2026-04-23 20:59 | 28.42429 | -81.30048 | 114 ft | 1 kts | 89° |
| 2026-04-23 21:00 | 28.42429 | -81.30050 | 114 ft | 0 kts | 90° |
| 2026-04-23 21:03 | 28.42429 | -81.30040 | 114 ft | 2 kts | 89° |
| 2026-04-23 21:03 | 28.42432 | -81.30008 | 114 ft | 5 kts | 80° |
| 2026-04-23 21:03 | 28.42451 | -81.29957 | 114 ft | 8 kts | 57° |
| 2026-04-23 21:03 | 28.42499 | -81.29905 | 114 ft | 10 kts | 30° |
| 2026-04-23 21:04 | 28.42557 | -81.29880 | 114 ft | 6 kts | 18° |
| 2026-04-23 21:04 | 28.42589 | -81.29845 | 114 ft | 8 kts | 72° |
| 2026-04-23 21:04 | 28.42596 | -81.29773 | 114 ft | 10 kts | 88° |
| 2026-04-23 21:04 | 28.42610 | -81.29723 | 114 ft | 6 kts | 39° |
| 2026-04-23 21:05 | 28.42662 | -81.29703 | 114 ft | 9 kts | 4° |
| 2026-04-23 21:05 | 28.42735 | -81.29703 | 114 ft | 11 kts | 359° |
| 2026-04-23 21:05 | 28.42824 | -81.29705 | 114 ft | 14 kts | 359° |
| 2026-04-23 21:05 | 28.42929 | -81.29706 | 114 ft | 15 kts | 360° |
| 2026-04-23 21:06 | 28.43043 | -81.29707 | 114 ft | 17 kts | 0° |
| 2026-04-23 21:06 | 28.43168 | -81.29709 | 114 ft | 18 kts | 359° |
| 2026-04-23 21:06 | 28.43298 | -81.29710 | 114 ft | 19 kts | 360° |
| 2026-04-23 21:06 | 28.43433 | -81.29711 | 114 ft | 19 kts | 0° |
| 2026-04-23 21:07 | 28.43509 | -81.29710 | 114 ft | 6 kts | 8° |
| 2026-04-23 21:07 | 28.43540 | -81.29675 | 114 ft | 7 kts | 69° |
| 2026-04-23 21:07 | 28.43544 | -81.29616 | 114 ft | 7 kts | 117° |
| 2026-04-23 21:07 | 28.43509 | -81.29591 | 114 ft | 3 kts | 173° |
| 2026-04-23 21:08 | 28.43490 | -81.29590 | 114 ft | 3 kts | 177° |
| 2026-04-23 21:08 | 28.43455 | -81.29588 | 114 ft | 9 kts | 178° |
| 2026-04-23 21:08 | 28.43183 | -81.29584 | 114 ft | 76 kts | 179° |
| 2026-04-23 21:08 | 28.42423 | -81.29577 | 114 ft | 141 kts | 179° |
| 2026-04-23 21:09 | 28.41266 | -81.29577 | 201 ft | 184 kts | 177° |
| 2026-04-23 21:09 | 28.40000 | -81.29584 | 894 ft | 182 kts | 178° |
| 2026-04-23 21:09 | 28.38740 | -81.29572 | 1522 ft | 182 kts | 168° |
| 2026-04-23 21:09 | 28.37569 | -81.29031 | 1817 ft | 191 kts | 147° |
| 2026-04-23 21:10 | 28.36424 | -81.28140 | 2116 ft | 206 kts | 143° |
| 2026-04-23 21:10 | 28.35244 | -81.27132 | 2413 ft | 222 kts | 139° |
| 2026-04-23 21:10 | 28.34073 | -81.25899 | 2715 ft | 240 kts | 133° |
| 2026-04-23 21:10 | 28.32885 | -81.24451 | 3133 ft | 257 kts | 132° |
| 2026-04-23 21:11 | 28.31684 | -81.22960 | 3808 ft | 261 kts | 129° |
| 2026-04-23 21:11 | 28.30852 | -81.21148 | 4536 ft | 263 kts | 102° |
| 2026-04-23 21:11 | 28.30819 | -81.19080 | 5251 ft | 267 kts | 77° |
| 2026-04-23 21:11 | 28.31521 | -81.17144 | 5959 ft | 272 kts | 64° |
| 2026-04-23 21:12 | 28.32399 | -81.15259 | 6675 ft | 275 kts | 63° |
| 2026-04-23 21:12 | 28.33314 | -81.13323 | 7402 ft | 279 kts | 63° |
| 2026-04-23 21:12 | 28.34219 | -81.11407 | 8119 ft | 281 kts | 63° |
| 2026-04-23 21:12 | 28.35150 | -81.09425 | 8844 ft | 284 kts | 63° |
| 2026-04-23 21:13 | 28.36073 | -81.07453 | 9538 ft | 287 kts | 63° |
| 2026-04-23 21:13 | 28.37013 | -81.05438 | 10180 ft | 292 kts | 63° |
| 2026-04-23 21:13 | 28.37976 | -81.03373 | 10605 ft | 305 kts | 63° |
| 2026-04-23 21:13 | 28.38995 | -81.01187 | 10909 ft | 322 kts | 63° |
| 2026-04-23 21:14 | 28.40084 | -80.98851 | 11215 ft | 339 kts | 62° |
| 2026-04-23 21:14 | 28.41203 | -80.96448 | 11508 ft | 356 kts | 62° |
| 2026-04-23 21:14 | 28.42382 | -80.93916 | 11799 ft | 372 kts | 62° |
| 2026-04-23 21:14 | 28.43618 | -80.91258 | 12095 ft | 388 kts | 62° |
| 2026-04-23 21:15 | 28.44891 | -80.88519 | 12616 ft | 397 kts | 62° |
| 2026-04-23 21:15 | 28.46169 | -80.85741 | 13307 ft | 400 kts | 64° |
| 2026-04-23 21:15 | 28.47237 | -80.82813 | 13987 ft | 403 kts | 71° |
| 2026-04-23 21:15 | 28.47960 | -80.79746 | 14627 ft | 408 kts | 78° |
| 2026-04-23 21:16 | 28.48396 | -80.76509 | 15257 ft | 412 kts | 82° |
| 2026-04-23 21:16 | 28.48744 | -80.73309 | 15847 ft | 417 kts | 82° |
| 2026-04-23 21:16 | 28.49093 | -80.69993 | 16444 ft | 421 kts | 82° |
| 2026-04-23 21:16 | 28.49444 | -80.66690 | 17027 ft | 425 kts | 82° |
| 2026-04-23 21:17 | 28.49802 | -80.63377 | 17596 ft | 429 kts | 82° |
| 2026-04-23 21:17 | 28.50174 | -80.59970 | 18164 ft | 433 kts | 81° |
| 2026-04-23 21:17 | 28.50546 | -80.56599 | 18701 ft | 438 kts | 81° |
| 2026-04-23 21:17 | 28.50926 | -80.53157 | 19223 ft | 442 kts | 81° |
| 2026-04-23 21:18 | 28.51311 | -80.49655 | 19735 ft | 446 kts | 82° |
| 2026-04-23 21:18 | 28.51696 | -80.46151 | 20233 ft | 451 kts | 82° |
| 2026-04-23 21:18 | 28.52083 | -80.42611 | 20725 ft | 455 kts | 82° |
| 2026-04-23 21:18 | 28.52474 | -80.39023 | 21216 ft | 459 kts | 82° |
| 2026-04-23 21:19 | 28.52862 | -80.35446 | 21673 ft | 463 kts | 82° |
| 2026-04-23 21:19 | 28.53346 | -80.31825 | 22112 ft | 467 kts | 78° |
| 2026-04-23 21:19 | 28.54123 | -80.28207 | 22559 ft | 470 kts | 72° |
| 2026-04-23 21:19 | 28.55202 | -80.24689 | 22999 ft | 473 kts | 66° |
| 2026-04-23 21:20 | 28.56468 | -80.21264 | 23429 ft | 476 kts | 65° |
| 2026-04-23 21:20 | 28.57794 | -80.17818 | 23849 ft | 480 kts | 64° |
| 2026-04-23 21:20 | 28.59147 | -80.14318 | 24264 ft | 483 kts | 64° |
| 2026-04-23 21:20 | 28.60490 | -80.10825 | 24692 ft | 487 kts | 64° |
| 2026-04-23 21:21 | 28.61846 | -80.07274 | 25138 ft | 489 kts | 65° |
| 2026-04-23 21:21 | 28.63195 | -80.03722 | 25591 ft | 491 kts | 65° |
| 2026-04-23 21:21 | 28.64536 | -80.00173 | 26007 ft | 494 kts | 65° |
| 2026-04-23 21:21 | 28.65897 | -79.96569 | 26422 ft | 496 kts | 65° |
| 2026-04-23 21:22 | 28.67259 | -79.92955 | 26838 ft | 498 kts | 65° |
| 2026-04-23 21:22 | 28.68624 | -79.89331 | 27238 ft | 500 kts | 65° |
| 2026-04-23 21:22 | 28.69985 | -79.85712 | 27610 ft | 503 kts | 65° |
| 2026-04-23 21:22 | 28.71369 | -79.82029 | 27972 ft | 506 kts | 65° |
| 2026-04-23 21:23 | 28.72753 | -79.78342 | 28383 ft | 507 kts | 65° |
| 2026-04-23 21:23 | 28.74123 | -79.74686 | 28923 ft | 505 kts | 65° |
| 2026-04-23 21:23 | 28.75487 | -79.71040 | 29476 ft | 503 kts | 65° |
| 2026-04-23 21:23 | 28.76868 | -79.67348 | 29985 ft | 501 kts | 65° |
| 2026-04-23 21:24 | 28.78219 | -79.63734 | 30457 ft | 500 kts | 65° |
| 2026-04-23 21:24 | 28.79649 | -79.60123 | 30905 ft | 499 kts | 62° |
| 2026-04-23 21:24 | 28.81238 | -79.56617 | 31343 ft | 498 kts | 58° |
| 2026-04-23 21:24 | 28.82987 | -79.53227 | 31763 ft | 496 kts | 55° |
| 2026-04-23 21:25 | 28.84877 | -79.49989 | 32172 ft | 495 kts | 52° |
| 2026-04-23 21:25 | 28.86871 | -79.46796 | 32586 ft | 494 kts | 51° |
| 2026-04-23 21:25 | 28.88864 | -79.43645 | 32985 ft | 493 kts | 51° |
| 2026-04-23 21:25 | 28.90867 | -79.40480 | 33377 ft | 492 kts | 51° |
| 2026-04-23 21:26 | 28.92870 | -79.37308 | 33719 ft | 493 kts | 51° |
| 2026-04-23 21:26 | 28.94865 | -79.34135 | 34010 ft | 494 kts | 52° |
| 2026-04-23 21:26 | 28.96861 | -79.30959 | 34275 ft | 495 kts | 52° |
| 2026-04-23 21:26 | 28.98850 | -79.27786 | 34544 ft | 496 kts | 52° |
| 2026-04-23 21:27 | 29.00865 | -79.24567 | 34799 ft | 497 kts | 52° |
| 2026-04-23 21:27 | 29.02873 | -79.21355 | 35030 ft | 498 kts | 52° |
| 2026-04-23 21:27 | 29.06896 | -79.14912 | 35091 ft | 499 kts | 52° |
| 2026-04-23 21:28 | 29.10900 | -79.08488 | 35093 ft | 499 kts | 52° |
| 2026-04-23 21:28 | 29.14912 | -79.02039 | 35093 ft | 498 kts | 52° |
| 2026-04-23 21:29 | 29.18905 | -78.95612 | 35093 ft | 498 kts | 52° |
| 2026-04-23 21:29 | 29.22893 | -78.89182 | 35093 ft | 497 kts | 52° |
| 2026-04-23 21:30 | 29.26893 | -78.82725 | 35093 ft | 497 kts | 52° |
| 2026-04-23 21:30 | 29.30875 | -78.76286 | 35093 ft | 497 kts | 52° |
| 2026-04-23 21:31 | 29.34843 | -78.69857 | 35093 ft | 496 kts | 52° |
| 2026-04-23 21:31 | 29.38863 | -78.63477 | 35093 ft | 494 kts | 51° |
| 2026-04-23 21:32 | 29.42999 | -78.57238 | 35092 ft | 493 kts | 50° |
| 2026-04-23 21:32 | 29.47462 | -78.51289 | 35093 ft | 491 kts | 44° |
| 2026-04-23 21:33 | 29.52424 | -78.46021 | 35092 ft | 488 kts | 37° |
| 2026-04-23 21:33 | 29.57821 | -78.41363 | 35093 ft | 485 kts | 32° |
| 2026-04-23 21:34 | 29.63349 | -78.36989 | 35092 ft | 485 kts | 32° |
| 2026-04-23 21:34 | 29.68871 | -78.32627 | 35092 ft | 484 kts | 32° |
| 2026-04-23 21:35 | 29.74428 | -78.28220 | 35092 ft | 483 kts | 32° |
| 2026-04-23 21:35 | 29.79913 | -78.23856 | 35093 ft | 483 kts | 33° |
| 2026-04-23 21:36 | 29.88183 | -78.17261 | 35092 ft | 483 kts | 33° |
| 2026-04-23 21:37 | 29.93685 | -78.12869 | 35092 ft | 482 kts | 33° |
| 2026-04-23 21:37 | 29.99169 | -78.08482 | 35091 ft | 482 kts | 33° |
| 2026-04-23 21:38 | 30.04653 | -78.04090 | 35086 ft | 482 kts | 33° |
| 2026-04-23 21:38 | 30.10134 | -77.99694 | 35081 ft | 482 kts | 33° |
| 2026-04-23 21:39 | 30.15616 | -77.95292 | 35076 ft | 482 kts | 33° |
| 2026-04-23 21:39 | 30.21120 | -77.90866 | 35074 ft | 482 kts | 33° |
| 2026-04-23 21:40 | 30.26602 | -77.86451 | 35073 ft | 482 kts | 33° |
| 2026-04-23 21:40 | 30.32042 | -77.82058 | 35072 ft | 482 kts | 34° |
| 2026-04-23 21:41 | 30.37128 | -77.76967 | 35073 ft | 485 kts | 44° |
| 2026-04-23 21:41 | 30.41295 | -77.70873 | 35073 ft | 487 kts | 56° |
| 2026-04-23 21:42 | 30.44426 | -77.63902 | 35073 ft | 489 kts | 66° |
| 2026-04-23 21:42 | 30.46813 | -77.56563 | 35073 ft | 490 kts | 68° |
| 2026-04-23 21:43 | 30.49160 | -77.49145 | 35073 ft | 490 kts | 68° |
| 2026-04-23 21:43 | 30.51520 | -77.41753 | 35073 ft | 490 kts | 68° |
| 2026-04-23 21:44 | 30.53882 | -77.34374 | 35072 ft | 490 kts | 68° |
| 2026-04-23 21:44 | 30.56241 | -77.26999 | 35073 ft | 490 kts | 68° |
| 2026-04-23 21:45 | 30.58603 | -77.19596 | 35073 ft | 490 kts | 68° |
| 2026-04-23 21:45 | 30.60954 | -77.12210 | 35071 ft | 491 kts | 68° |
| 2026-04-23 21:46 | 30.63622 | -77.04980 | 35069 ft | 489 kts | 62° |
| 2026-04-23 21:46 | 30.66972 | -76.98146 | 35066 ft | 487 kts | 54° |
| 2026-04-23 21:47 | 30.70971 | -76.91810 | 35061 ft | 485 kts | 48° |
| 2026-04-23 21:47 | 30.75363 | -76.85918 | 35056 ft | 484 kts | 46° |
| 2026-04-23 21:48 | 30.79787 | -76.80065 | 35051 ft | 484 kts | 46° |
| 2026-04-23 21:48 | 30.84202 | -76.74199 | 35048 ft | 484 kts | 46° |
| 2026-04-23 21:49 | 30.88613 | -76.68317 | 35047 ft | 484 kts | 46° |
| 2026-04-23 21:49 | 30.93010 | -76.62437 | 35046 ft | 484 kts | 46° |
| 2026-04-23 21:50 | 30.97439 | -76.56508 | 35046 ft | 484 kts | 46° |
| 2026-04-23 21:50 | 31.01831 | -76.50619 | 35046 ft | 484 kts | 46° |
| 2026-04-23 21:51 | 31.06207 | -76.44740 | 35046 ft | 484 kts | 46° |
| 2026-04-23 21:51 | 31.10617 | -76.38808 | 35046 ft | 484 kts | 46° |
| 2026-04-23 21:52 | 31.15015 | -76.32884 | 35046 ft | 484 kts | 47° |
| 2026-04-23 21:52 | 31.19389 | -76.26982 | 35046 ft | 484 kts | 47° |
| 2026-04-23 21:53 | 31.23769 | -76.21063 | 35046 ft | 484 kts | 47° |
| 2026-04-23 21:53 | 31.28165 | -76.15113 | 35047 ft | 484 kts | 47° |
| 2026-04-23 21:54 | 31.32536 | -76.09185 | 35047 ft | 483 kts | 46° |
| 2026-04-23 21:54 | 31.36899 | -76.03262 | 35046 ft | 483 kts | 46° |
| 2026-04-23 21:55 | 31.41283 | -75.97299 | 35045 ft | 483 kts | 46° |
| 2026-04-23 21:55 | 31.45657 | -75.91343 | 35043 ft | 483 kts | 46° |
| 2026-04-23 21:56 | 31.50029 | -75.85380 | 35040 ft | 483 kts | 46° |
| 2026-04-23 21:56 | 31.54374 | -75.79443 | 35038 ft | 484 kts | 46° |
| 2026-04-23 21:57 | 31.58745 | -75.73461 | 35036 ft | 483 kts | 46° |
| 2026-04-23 21:57 | 31.63107 | -75.67483 | 35036 ft | 483 kts | 46° |
| 2026-04-23 21:58 | 31.67448 | -75.61525 | 35036 ft | 483 kts | 46° |
| 2026-04-23 21:58 | 31.71791 | -75.55553 | 35036 ft | 483 kts | 46° |
| 2026-04-23 21:59 | 31.76170 | -75.49523 | 35037 ft | 483 kts | 46° |
| 2026-04-23 21:59 | 31.80512 | -75.43534 | 35038 ft | 483 kts | 46° |
| 2026-04-23 22:00 | 31.87020 | -75.34540 | 35033 ft | 483 kts | 47° |
| 2026-04-23 22:00 | 31.91343 | -75.28554 | 35029 ft | 484 kts | 47° |
| 2026-04-23 22:01 | 31.95701 | -75.22510 | 35028 ft | 483 kts | 47° |
| 2026-04-23 22:01 | 32.00035 | -75.16489 | 35027 ft | 483 kts | 47° |
| 2026-04-23 22:02 | 32.04344 | -75.10487 | 35028 ft | 481 kts | 46° |
| 2026-04-23 22:02 | 32.08651 | -75.04488 | 35026 ft | 481 kts | 46° |
| 2026-04-23 22:03 | 32.12954 | -74.98483 | 35024 ft | 480 kts | 46° |
| 2026-04-23 22:03 | 32.17245 | -74.92484 | 35019 ft | 480 kts | 46° |
| 2026-04-23 22:04 | 32.21543 | -74.86464 | 35015 ft | 480 kts | 46° |
| 2026-04-23 22:04 | 32.25806 | -74.80486 | 35012 ft | 480 kts | 46° |
| 2026-04-23 22:05 | 32.30091 | -74.74468 | 35010 ft | 480 kts | 46° |
| 2026-04-23 22:05 | 32.34396 | -74.68410 | 35010 ft | 480 kts | 46° |
| 2026-04-23 22:06 | 32.38670 | -74.62386 | 35009 ft | 480 kts | 46° |
| 2026-04-23 22:06 | 32.42949 | -74.56342 | 35010 ft | 480 kts | 46° |
| 2026-04-23 22:07 | 32.47201 | -74.50331 | 35009 ft | 480 kts | 46° |
| 2026-04-23 22:07 | 32.51483 | -74.44268 | 35009 ft | 480 kts | 46° |
| 2026-04-23 22:08 | 32.55733 | -74.38239 | 35009 ft | 480 kts | 46° |
| 2026-04-23 22:08 | 32.60009 | -74.32164 | 35008 ft | 480 kts | 47° |
| 2026-04-23 22:09 | 32.64263 | -74.26109 | 35009 ft | 480 kts | 47° |
| 2026-04-23 22:09 | 32.68513 | -74.20051 | 35009 ft | 480 kts | 47° |
| 2026-04-23 22:10 | 32.72772 | -74.13969 | 35010 ft | 479 kts | 47° |
| 2026-04-23 22:10 | 32.77021 | -74.07892 | 35010 ft | 479 kts | 47° |
| 2026-04-23 22:11 | 32.81249 | -74.01832 | 35010 ft | 479 kts | 46° |
| 2026-04-23 22:11 | 32.85489 | -73.95747 | 35012 ft | 479 kts | 46° |
| 2026-04-23 22:12 | 32.89704 | -73.89688 | 35014 ft | 479 kts | 46° |
| 2026-04-23 22:12 | 32.93953 | -73.83572 | 35016 ft | 479 kts | 46° |
| 2026-04-23 22:13 | 32.98162 | -73.77503 | 35016 ft | 478 kts | 46° |
| 2026-04-23 22:13 | 33.02399 | -73.71381 | 35016 ft | 478 kts | 46° |
| 2026-04-23 22:14 | 33.06588 | -73.65321 | 35015 ft | 478 kts | 46° |
| 2026-04-23 22:14 | 33.10811 | -73.59200 | 35014 ft | 478 kts | 46° |
| 2026-04-23 22:15 | 33.15004 | -73.53110 | 35012 ft | 477 kts | 46° |
| 2026-04-23 22:15 | 33.19212 | -73.46991 | 35010 ft | 477 kts | 46° |
| 2026-04-23 22:16 | 33.23388 | -73.40906 | 35010 ft | 477 kts | 46° |
| 2026-04-23 22:16 | 33.27604 | -73.34757 | 35009 ft | 477 kts | 47° |
| 2026-04-23 22:17 | 33.31786 | -73.28646 | 35009 ft | 478 kts | 46° |
| 2026-04-23 22:17 | 33.35962 | -73.22533 | 35009 ft | 478 kts | 46° |
| 2026-04-23 22:18 | 33.40166 | -73.16367 | 35009 ft | 478 kts | 46° |
| 2026-04-23 22:18 | 33.44362 | -73.10201 | 35009 ft | 478 kts | 46° |
| 2026-04-23 22:19 | 33.48542 | -73.04049 | 35009 ft | 478 kts | 46° |
| 2026-04-23 22:19 | 33.52721 | -72.97885 | 35009 ft | 478 kts | 46° |
| 2026-04-23 22:20 | 33.56897 | -72.91719 | 35009 ft | 478 kts | 46° |
| 2026-04-23 22:20 | 33.61080 | -72.85532 | 35009 ft | 479 kts | 46° |
| 2026-04-23 22:21 | 33.65253 | -72.79347 | 35009 ft | 479 kts | 46° |
| 2026-04-23 22:21 | 33.69428 | -72.73147 | 35009 ft | 479 kts | 46° |
| 2026-04-23 22:22 | 33.73607 | -72.66935 | 35009 ft | 479 kts | 46° |
| 2026-04-23 22:22 | 33.77754 | -72.60757 | 35009 ft | 479 kts | 46° |
| 2026-04-23 22:23 | 33.81934 | -72.54518 | 35009 ft | 480 kts | 46° |
| 2026-04-23 22:23 | 33.86105 | -72.48284 | 35009 ft | 480 kts | 46° |
| 2026-04-23 22:24 | 33.90281 | -72.42031 | 35009 ft | 480 kts | 46° |
| 2026-04-23 22:24 | 33.94437 | -72.35796 | 35009 ft | 480 kts | 46° |
| 2026-04-23 22:25 | 33.98597 | -72.29546 | 35008 ft | 481 kts | 46° |
| 2026-04-23 22:25 | 34.02828 | -72.23337 | 35010 ft | 480 kts | 46° |
| 2026-04-23 22:26 | 34.07072 | -72.17134 | 35009 ft | 480 kts | 46° |
| 2026-04-23 22:26 | 34.11302 | -72.10927 | 35011 ft | 481 kts | 46° |
| 2026-04-23 22:27 | 34.15536 | -72.04696 | 35007 ft | 481 kts | 46° |
| 2026-04-23 22:27 | 34.19752 | -71.98478 | 35005 ft | 481 kts | 46° |
| 2026-04-23 22:28 | 34.23956 | -71.92266 | 35003 ft | 481 kts | 46° |
| 2026-04-23 22:28 | 34.28162 | -71.86041 | 35001 ft | 481 kts | 46° |
| 2026-04-23 22:29 | 34.32375 | -71.79796 | 34999 ft | 481 kts | 46° |
| 2026-04-23 22:29 | 34.36604 | -71.73514 | 34999 ft | 481 kts | 46° |
| 2026-04-23 22:30 | 34.40803 | -71.67268 | 34999 ft | 481 kts | 46° |
| 2026-04-23 22:30 | 34.45022 | -71.60980 | 34999 ft | 481 kts | 45° |
| 2026-04-23 22:31 | 34.49201 | -71.54739 | 34999 ft | 481 kts | 45° |
| 2026-04-23 22:31 | 34.53423 | -71.48422 | 34999 ft | 481 kts | 45° |
| 2026-04-23 22:32 | 34.57592 | -71.42173 | 34999 ft | 481 kts | 45° |
| 2026-04-23 22:32 | 34.61791 | -71.35870 | 34999 ft | 481 kts | 45° |
| 2026-04-23 22:33 | 34.65989 | -71.29555 | 34998 ft | 482 kts | 46° |
| 2026-04-23 22:33 | 34.70174 | -71.23254 | 34999 ft | 482 kts | 46° |
| 2026-04-23 22:34 | 34.74374 | -71.16918 | 34999 ft | 482 kts | 45° |
| 2026-04-23 22:34 | 34.78577 | -71.10567 | 34999 ft | 482 kts | 45° |
| 2026-04-23 22:35 | 34.82744 | -71.04253 | 34999 ft | 483 kts | 45° |
| 2026-04-23 22:35 | 34.86937 | -70.97890 | 34999 ft | 483 kts | 45° |
| 2026-04-23 22:36 | 34.91117 | -70.91534 | 34999 ft | 482 kts | 45° |
| 2026-04-23 22:36 | 34.95307 | -70.85152 | 34999 ft | 482 kts | 45° |
| 2026-04-23 22:37 | 34.99463 | -70.78812 | 34999 ft | 482 kts | 45° |
| 2026-04-23 22:37 | 35.03652 | -70.72407 | 34999 ft | 482 kts | 45° |
| 2026-04-23 22:38 | 35.07816 | -70.66031 | 34998 ft | 482 kts | 45° |
| 2026-04-23 22:38 | 35.11986 | -70.59634 | 35001 ft | 483 kts | 45° |
| 2026-04-23 22:39 | 35.16140 | -70.53249 | 34999 ft | 483 kts | 45° |
| 2026-04-23 22:39 | 35.20290 | -70.46858 | 34999 ft | 483 kts | 45° |
| 2026-04-23 22:40 | 35.24471 | -70.40411 | 34999 ft | 483 kts | 45° |
| 2026-04-23 22:41 | 35.30693 | -70.30789 | 34997 ft | 483 kts | 45° |
| 2026-04-23 22:41 | 35.34846 | -70.24352 | 34999 ft | 483 kts | 45° |
| 2026-04-23 22:42 | 35.38972 | -70.17943 | 34999 ft | 483 kts | 45° |
| 2026-04-23 22:42 | 35.43132 | -70.11472 | 34997 ft | 483 kts | 45° |
| 2026-04-23 22:43 | 35.47277 | -70.05014 | 34993 ft | 483 kts | 45° |
| 2026-04-23 22:43 | 35.51399 | -69.98577 | 34988 ft | 483 kts | 45° |
| 2026-04-23 22:44 | 35.55535 | -69.92110 | 34985 ft | 484 kts | 45° |
| 2026-04-23 22:44 | 35.59666 | -69.85635 | 34982 ft | 484 kts | 44° |
| 2026-04-23 22:45 | 35.63799 | -69.79147 | 34981 ft | 484 kts | 44° |
| 2026-04-23 22:45 | 35.67946 | -69.72624 | 34981 ft | 484 kts | 44° |
| 2026-04-23 22:46 | 35.72071 | -69.66122 | 34981 ft | 484 kts | 44° |
| 2026-04-23 22:46 | 35.76184 | -69.59629 | 34981 ft | 484 kts | 44° |
| 2026-04-23 22:47 | 35.80325 | -69.53077 | 34980 ft | 484 kts | 44° |
| 2026-04-23 22:47 | 35.84452 | -69.46538 | 34981 ft | 485 kts | 44° |
| 2026-04-23 22:48 | 35.88571 | -69.39999 | 34980 ft | 486 kts | 45° |
| 2026-04-23 22:48 | 35.92690 | -69.33443 | 34974 ft | 486 kts | 45° |
| 2026-04-23 22:49 | 35.96853 | -69.26808 | 34973 ft | 488 kts | 45° |
| 2026-04-23 22:49 | 36.00983 | -69.20209 | 34971 ft | 487 kts | 45° |
| 2026-04-23 22:50 | 36.05096 | -69.13612 | 34966 ft | 485 kts | 44° |
| 2026-04-23 22:50 | 36.09185 | -69.07065 | 34963 ft | 486 kts | 44° |
| 2026-04-23 22:51 | 36.13307 | -69.00447 | 34965 ft | 486 kts | 44° |
| 2026-04-23 22:51 | 36.17421 | -68.93827 | 34966 ft | 487 kts | 44° |
| 2026-04-23 22:52 | 36.21536 | -68.87194 | 34969 ft | 488 kts | 44° |
| 2026-04-23 22:52 | 36.25641 | -68.80561 | 34971 ft | 488 kts | 44° |
| 2026-04-23 22:53 | 36.29753 | -68.73900 | 34972 ft | 489 kts | 44° |
| 2026-04-23 22:53 | 36.33879 | -68.67208 | 34972 ft | 489 kts | 44° |
| 2026-04-23 22:54 | 36.37990 | -68.60526 | 34972 ft | 489 kts | 44° |
| 2026-04-23 22:54 | 36.42116 | -68.53809 | 34972 ft | 490 kts | 44° |
| 2026-04-23 22:55 | 36.46237 | -68.47081 | 34972 ft | 490 kts | 44° |
| 2026-04-23 22:55 | 36.50349 | -68.40355 | 34973 ft | 490 kts | 44° |
| 2026-04-23 22:56 | 36.54429 | -68.33666 | 34968 ft | 490 kts | 45° |
| 2026-04-23 22:56 | 36.58545 | -68.26911 | 34967 ft | 490 kts | 45° |
| 2026-04-23 22:57 | 36.62653 | -68.20161 | 34964 ft | 489 kts | 45° |
| 2026-04-23 22:57 | 36.66722 | -68.13457 | 34959 ft | 489 kts | 45° |
| 2026-04-23 22:58 | 36.70796 | -68.06728 | 34956 ft | 488 kts | 45° |
| 2026-04-23 22:58 | 36.74876 | -67.99975 | 34956 ft | 488 kts | 45° |
| 2026-04-23 22:59 | 36.78960 | -67.93208 | 34957 ft | 490 kts | 45° |
| 2026-04-23 22:59 | 36.83044 | -67.86419 | 34959 ft | 490 kts | 44° |
| 2026-04-23 23:00 | 36.87096 | -67.79673 | 34960 ft | 489 kts | 44° |
| 2026-04-23 23:00 | 36.91159 | -67.72895 | 34960 ft | 488 kts | 44° |
| 2026-04-23 23:01 | 36.95191 | -67.66153 | 34960 ft | 487 kts | 44° |
| 2026-04-23 23:01 | 36.99242 | -67.59367 | 34960 ft | 486 kts | 44° |
| 2026-04-23 23:02 | 37.03261 | -67.52623 | 34960 ft | 486 kts | 44° |
| 2026-04-23 23:02 | 37.07299 | -67.45832 | 34960 ft | 485 kts | 44° |
| 2026-04-23 23:03 | 37.11314 | -67.39066 | 34963 ft | 485 kts | 44° |
| 2026-04-23 23:03 | 37.15301 | -67.32339 | 34957 ft | 485 kts | 45° |
| 2026-04-23 23:04 | 37.19322 | -67.25536 | 34958 ft | 486 kts | 45° |
| 2026-04-23 23:04 | 37.23317 | -67.18760 | 34956 ft | 486 kts | 44° |
| 2026-04-23 23:05 | 37.27344 | -67.11922 | 34952 ft | 487 kts | 45° |
| 2026-04-23 23:05 | 37.31353 | -67.05096 | 34950 ft | 487 kts | 45° |
| 2026-04-23 23:06 | 37.35336 | -66.98300 | 34949 ft | 487 kts | 45° |
| 2026-04-23 23:06 | 37.39334 | -66.91464 | 34950 ft | 487 kts | 44° |
| 2026-04-23 23:07 | 37.43350 | -66.84581 | 34951 ft | 489 kts | 44° |
| 2026-04-23 23:07 | 37.47358 | -66.77705 | 34951 ft | 489 kts | 45° |
| 2026-04-23 23:08 | 37.51363 | -66.70824 | 34951 ft | 489 kts | 44° |
| 2026-04-23 23:08 | 37.55345 | -66.63960 | 34951 ft | 489 kts | 44° |
| 2026-04-23 23:09 | 37.59359 | -66.57030 | 34951 ft | 489 kts | 44° |
| 2026-04-23 23:09 | 37.63344 | -66.50131 | 34950 ft | 489 kts | 44° |
| 2026-04-23 23:10 | 37.67342 | -66.43198 | 34951 ft | 490 kts | 44° |
| 2026-04-23 23:10 | 37.71349 | -66.36234 | 34951 ft | 490 kts | 44° |
| 2026-04-23 23:11 | 37.75325 | -66.29310 | 34949 ft | 490 kts | 45° |
| 2026-04-23 23:11 | 37.79323 | -66.22333 | 34950 ft | 491 kts | 45° |
| 2026-04-23 23:12 | 37.83302 | -66.15373 | 34946 ft | 491 kts | 45° |
| 2026-04-23 23:12 | 37.87315 | -66.08337 | 34944 ft | 491 kts | 45° |
| 2026-04-23 23:13 | 37.91296 | -66.01346 | 34944 ft | 491 kts | 45° |
| 2026-04-23 23:13 | 37.95267 | -65.94355 | 34944 ft | 491 kts | 45° |
| 2026-04-23 23:14 | 37.99242 | -65.87344 | 34944 ft | 491 kts | 45° |
| 2026-04-23 23:14 | 38.03226 | -65.80301 | 34944 ft | 491 kts | 45° |
| 2026-04-23 23:15 | 38.07164 | -65.73323 | 34944 ft | 491 kts | 45° |
| 2026-04-23 23:15 | 38.11136 | -65.66273 | 34947 ft | 491 kts | 45° |
| 2026-04-23 23:16 | 38.15100 | -65.59222 | 34944 ft | 492 kts | 45° |
| 2026-04-23 23:16 | 38.19069 | -65.52146 | 34944 ft | 493 kts | 45° |
| 2026-04-23 23:17 | 38.23039 | -65.45053 | 34944 ft | 494 kts | 45° |
| 2026-04-23 23:17 | 38.27007 | -65.37949 | 34944 ft | 495 kts | 45° |